createdAt,value
2023-05-24T00:02:26.889Z,1.00
2023-05-24T00:05:02.613Z,99.90
2023-05-24T00:07:29.543Z,49.20
2023-05-24T00:09:56.372Z,99.90
2023-05-24T00:12:23.060Z,1.00
2023-05-24T00:14:49.838Z,1.00
2023-05-24T00:17:16.574Z,99.90
2023-05-24T00:19:43.537Z,99.90
2023-05-24T00:22:10.543Z,1.00
2023-05-24T00:24:37.246Z,99.90
2023-05-24T00:27:04.357Z,99.90
2023-05-24T00:29:32.364Z,1.00
2023-05-24T00:31:59.276Z,1.00
2023-05-24T00:34:26.069Z,1.00
2023-05-24T00:36:52.798Z,49.10
2023-05-24T00:39:19.466Z,99.90
2023-05-24T00:41:46.189Z,99.90
2023-05-24T00:44:12.970Z,1.00
2023-05-24T00:46:40.110Z,1.00
2023-05-24T00:49:10.408Z,1.00
2023-05-24T00:51:38.397Z,73.10
2023-05-24T00:54:08.356Z,33.50
2023-05-24T00:56:35.560Z,1.00
2023-05-24T00:59:02.608Z,22.30
2023-05-24T01:01:34.706Z,81.40
2023-05-24T01:04:02.227Z,99.90
2023-05-24T01:06:29.637Z,99.90
2023-05-24T01:09:20.594Z,99.90
2023-05-24T01:12:08.336Z,9.70
2023-05-24T01:15:10.721Z,99.90
2023-05-24T01:17:51.733Z,1.00
2023-05-24T01:20:19.795Z,1.00
2023-05-24T01:23:09.264Z,99.90
2023-05-24T01:26:06.502Z,1.00
2023-05-24T01:28:35.372Z,99.90
2023-05-24T01:31:04.361Z,1.00
2023-05-24T01:33:32.017Z,99.90
2023-05-24T01:35:58.735Z,1.00
2023-05-24T01:38:25.491Z,99.90
2023-05-24T01:41:00.420Z,99.90
2023-05-24T01:43:43.421Z,99.90
2023-05-24T01:46:20.878Z,99.90
2023-05-24T01:49:13.645Z,1.00
2023-05-24T01:51:48.577Z,1.00
2023-05-24T01:54:22.218Z,99.90
2023-05-24T01:56:50.167Z,99.90
2023-05-24T01:59:18.046Z,99.90
2023-05-24T02:01:46.538Z,99.90
2023-05-24T02:04:13.413Z,99.90
2023-05-24T02:06:40.148Z,99.90
2023-05-24T02:09:06.811Z,1.00
2023-05-24T02:11:33.600Z,99.90
2023-05-24T02:14:00.424Z,99.90
2023-05-24T02:16:30.657Z,1.00
2023-05-24T02:18:58.204Z,99.90
2023-05-24T02:21:25.804Z,99.90
2023-05-24T02:23:52.771Z,99.90
2023-05-24T02:26:19.607Z,1.00
2023-05-24T02:28:49.354Z,1.00
2023-05-24T02:31:16.180Z,99.90
2023-05-24T02:33:43.513Z,99.90
2023-05-24T02:36:10.877Z,99.90
2023-05-24T02:38:37.731Z,99.90
2023-05-24T02:41:04.477Z,99.90
2023-05-24T02:43:31.173Z,99.90
2023-05-24T02:45:57.883Z,99.90
2023-05-24T02:48:24.693Z,99.90
2023-05-24T02:50:51.399Z,99.90
2023-05-24T02:53:18.106Z,99.90
2023-05-24T02:55:47.901Z,50.90
2023-05-24T02:58:14.650Z,96.70
2023-05-24T03:00:41.587Z,36.20
2023-05-24T03:03:08.549Z,78.20
2023-05-24T03:05:35.208Z,28.50
2023-05-24T03:08:01.983Z,69.80
2023-05-24T03:10:31.259Z,26.80
2023-05-24T03:12:58.173Z,1.00
2023-05-24T03:15:24.876Z,1.00
2023-05-24T03:17:51.785Z,1.00
2023-05-24T03:20:23.407Z,1.00
2023-05-24T03:22:50.402Z,1.00
2023-05-24T03:25:17.233Z,1.00
2023-05-24T03:27:44.283Z,1.00
2023-05-24T03:30:11.454Z,1.00
2023-05-24T03:32:41.058Z,1.00
2023-05-24T03:35:08.231Z,1.00
2023-05-24T03:37:34.922Z,1.00
2023-05-24T03:40:01.645Z,1.00
2023-05-24T03:42:28.407Z,1.00
2023-05-24T03:44:55.072Z,1.00
2023-05-24T03:47:21.819Z,1.00
2023-05-24T03:49:48.569Z,1.00
2023-05-24T03:52:15.295Z,1.00
2023-05-24T03:54:41.967Z,1.00
2023-05-24T03:57:08.793Z,1.00
2023-05-24T03:59:35.629Z,1.00
2023-05-24T04:02:02.645Z,1.00
2023-05-24T04:04:29.382Z,1.00
2023-05-24T04:06:59.183Z,1.00
2023-05-24T04:09:25.851Z,1.00
2023-05-24T04:11:52.557Z,1.00
2023-05-24T04:14:19.414Z,77.30
2023-05-24T04:16:46.842Z,99.90
2023-05-24T04:19:13.944Z,99.90
2023-05-24T04:21:45.964Z,99.90
2023-05-24T04:24:12.691Z,99.90
2023-05-24T04:26:44.486Z,97.00
2023-05-24T04:29:11.156Z,1.00
2023-05-24T04:31:38.034Z,1.00
2023-05-24T04:34:07.342Z,1.00
2023-05-24T04:36:35.525Z,1.00
2023-05-24T04:39:04.947Z,1.00
2023-05-24T04:41:35.992Z,1.00
2023-05-24T04:44:02.805Z,1.00
2023-05-24T04:46:29.808Z,99.90
2023-05-24T04:48:56.559Z,99.90
2023-05-24T04:51:24.722Z,99.90
2023-05-24T04:53:51.434Z,99.90
2023-05-24T04:56:18.401Z,99.90
2023-05-24T04:58:45.762Z,99.90
2023-05-24T05:01:12.514Z,99.90
2023-05-24T05:03:39.190Z,99.90
2023-05-24T05:06:06.088Z,99.90
2023-05-24T05:08:33.467Z,99.90
2023-05-24T05:11:00.161Z,99.90
2023-05-24T05:13:26.826Z,99.90
2023-05-24T05:15:53.709Z,99.90
2023-05-24T05:18:20.590Z,99.90
2023-05-24T05:20:47.478Z,99.90
2023-05-24T05:23:14.362Z,99.90
2023-05-24T05:25:41.044Z,99.90
2023-05-24T05:28:07.747Z,99.90
2023-05-24T05:30:34.431Z,99.90
2023-05-24T05:33:03.900Z,99.90
2023-05-24T05:35:30.690Z,99.90
2023-05-24T05:37:57.386Z,99.90
2023-05-24T05:40:24.095Z,99.90
2023-05-24T05:42:53.273Z,99.90
2023-05-24T05:45:20.154Z,99.90
2023-05-24T05:47:47.112Z,99.90
2023-05-24T05:50:13.918Z,99.90
2023-05-24T05:52:41.044Z,99.90
2023-05-24T05:55:08.727Z,99.90
2023-05-24T05:57:35.484Z,99.90
2023-05-24T06:00:04.731Z,99.90
2023-05-24T06:02:31.562Z,99.90
2023-05-24T06:04:58.551Z,99.90
2023-05-24T06:07:25.318Z,99.90
2023-05-24T06:09:51.978Z,99.90
2023-05-24T06:12:18.701Z,99.90
2023-05-24T06:14:45.379Z,99.90
2023-05-24T06:17:12.375Z,99.90
2023-05-24T06:19:39.043Z,99.90
2023-05-24T06:22:05.837Z,99.90
2023-05-24T06:24:34.633Z,99.90
2023-05-24T06:27:03.321Z,99.90
2023-05-24T06:29:31.965Z,99.90
2023-05-24T06:31:58.834Z,99.90
2023-05-24T06:34:29.721Z,99.90
2023-05-24T06:36:56.500Z,99.90
2023-05-24T06:39:25.149Z,99.90
2023-05-24T06:41:51.853Z,99.90
2023-05-24T06:44:21.420Z,99.90
2023-05-24T06:46:49.689Z,99.90
2023-05-24T06:49:16.482Z,99.90
2023-05-24T06:51:43.892Z,99.90
2023-05-24T06:54:11.047Z,99.90
2023-05-24T06:56:40.530Z,99.90
2023-05-24T06:59:08.729Z,99.90
2023-05-24T07:01:39.768Z,99.90
2023-05-24T07:04:06.891Z,99.90
2023-05-24T07:06:34.260Z,99.90
2023-05-24T07:09:10.328Z,99.90
2023-05-24T07:11:37.201Z,99.90
2023-05-24T07:14:03.903Z,99.90
2023-05-24T07:16:30.816Z,99.90
2023-05-24T07:18:58.410Z,99.90
2023-05-24T07:21:25.241Z,99.90
2023-05-24T07:23:55.134Z,99.90
2023-05-24T07:26:21.919Z,99.90
2023-05-24T07:28:48.846Z,99.90
2023-05-24T07:31:16.312Z,99.90
2023-05-24T07:33:45.814Z,99.90
2023-05-24T07:36:12.739Z,99.90
2023-05-24T07:38:39.444Z,99.90
2023-05-24T07:41:07.225Z,99.90
2023-05-24T07:43:34.153Z,99.90
2023-05-24T07:46:00.973Z,99.90
2023-05-24T07:48:27.696Z,99.90
2023-05-24T07:50:57.364Z,99.90
2023-05-24T07:53:24.135Z,99.90
2023-05-24T07:55:53.937Z,99.90
2023-05-24T07:58:20.782Z,99.90
2023-05-24T08:00:47.439Z,99.90
2023-05-24T08:03:19.023Z,99.90
2023-05-24T08:05:45.958Z,99.90
2023-05-24T08:08:15.436Z,99.90
2023-05-24T08:10:42.207Z,99.90
2023-05-24T08:13:09.050Z,99.90
2023-05-24T08:15:37.905Z,99.90
2023-05-24T08:18:07.784Z,99.90
2023-05-24T08:20:36.283Z,99.90
2023-05-24T08:23:03.051Z,99.90
2023-05-24T08:25:29.809Z,99.90
2023-05-24T08:27:57.760Z,99.90
2023-05-24T08:30:24.964Z,99.90
2023-05-24T08:32:53.250Z,99.90
2023-05-24T08:35:21.875Z,99.90
2023-05-24T08:37:49.572Z,99.90
2023-05-24T08:40:19.475Z,99.90
2023-05-24T08:42:46.777Z,99.90
2023-05-24T08:45:18.062Z,99.90
2023-05-24T08:47:46.371Z,99.90
2023-05-24T08:50:15.740Z,99.90
2023-05-24T08:52:43.929Z,99.90
2023-05-24T08:55:12.380Z,99.90
2023-05-24T08:57:41.525Z,99.90
2023-05-24T09:00:11.773Z,99.90
2023-05-24T09:02:40.545Z,99.90
2023-05-24T09:05:11.427Z,99.90
2023-05-24T09:07:38.456Z,99.90
2023-05-24T09:10:07.490Z,99.90
2023-05-24T09:12:39.500Z,99.90
2023-05-24T09:15:08.627Z,99.90
2023-05-24T09:17:37.798Z,99.90
2023-05-24T09:20:14.753Z,99.90
2023-05-24T09:22:48.575Z,99.90
2023-05-24T09:25:15.558Z,99.90
2023-05-24T09:27:46.138Z,99.90
2023-05-24T09:30:15.525Z,99.90
2023-05-24T09:32:56.263Z,99.90
2023-05-24T09:35:23.194Z,99.90
2023-05-24T09:37:50.188Z,99.90
2023-05-24T09:40:20.584Z,99.90
2023-05-24T09:42:51.263Z,99.90
2023-05-24T09:45:18.117Z,99.90
2023-05-24T09:47:45.390Z,99.90
2023-05-24T09:50:14.288Z,99.90
2023-05-24T09:52:47.196Z,99.90
2023-05-24T09:55:16.515Z,99.90
2023-05-24T09:57:52.593Z,99.90
2023-05-24T10:00:23.727Z,99.90
2023-05-24T10:03:14.330Z,99.90
2023-05-24T10:05:47.932Z,99.90
2023-05-24T10:08:15.981Z,99.90
2023-05-24T10:10:45.943Z,99.90
2023-05-24T10:13:15.873Z,99.90
2023-05-24T10:15:43.513Z,99.90
2023-05-24T10:18:13.680Z,99.90
2023-05-24T10:20:47.710Z,99.90
2023-05-24T10:23:19.042Z,99.90
2023-05-24T10:25:51.199Z,99.90
2023-05-24T10:28:20.058Z,99.90
2023-05-24T10:31:05.903Z,99.90
2023-05-24T10:33:36.355Z,99.90
2023-05-24T10:36:09.465Z,99.90
2023-05-24T10:38:39.925Z,99.90
2023-05-24T10:41:10.621Z,99.90
2023-05-24T10:43:38.002Z,99.90
2023-05-24T10:46:08.234Z,99.90
2023-05-24T10:48:36.659Z,99.90
2023-05-24T10:51:33.612Z,99.90
2023-05-24T10:54:19.901Z,99.90
2023-05-24T10:56:52.302Z,99.90
2023-05-24T10:59:30.747Z,99.90
2023-05-24T11:01:59.184Z,99.90
2023-05-24T11:04:31.649Z,99.90
2023-05-24T11:07:05.463Z,99.90
2023-05-24T11:09:55.247Z,99.90
2023-05-24T11:12:22.914Z,99.90
2023-05-24T11:14:53.339Z,99.90
2023-05-24T11:17:24.229Z,99.90
2023-05-24T11:19:53.753Z,99.90
2023-05-24T11:22:26.796Z,99.90
2023-05-24T11:24:57.823Z,99.90
2023-05-24T11:27:25.118Z,99.90
2023-05-24T11:29:52.662Z,99.90
2023-05-24T11:32:21.910Z,99.90
2023-05-24T11:34:49.580Z,99.90
2023-05-24T11:37:18.235Z,99.90
2023-05-24T11:39:53.054Z,99.90
2023-05-24T11:42:22.613Z,99.90
2023-05-24T11:44:50.349Z,99.90
2023-05-24T11:47:17.198Z,99.90
2023-05-24T11:49:43.943Z,99.90
2023-05-24T11:52:10.625Z,99.90
2023-05-24T11:54:38.796Z,99.90
2023-05-24T11:57:05.855Z,99.90
2023-05-24T11:59:37.987Z,99.90
2023-05-24T12:02:06.638Z,99.90
2023-05-24T12:04:34.622Z,99.90
2023-05-24T12:07:01.892Z,99.90
2023-05-24T12:09:28.721Z,99.90
2023-05-24T12:11:56.031Z,99.90
2023-05-24T12:14:24.098Z,99.90
2023-05-24T12:16:50.868Z,99.90
2023-05-24T12:21:54.050Z,99.90
2023-05-24T12:24:21.046Z,99.90
2023-05-24T12:26:48.594Z,99.90
2023-05-24T12:29:16.271Z,99.90
2023-05-24T12:31:45.046Z,99.90
2023-05-24T12:34:13.433Z,99.90
2023-05-24T12:36:43.617Z,99.90
2023-05-24T12:39:37.383Z,99.90
2023-05-24T12:42:05.003Z,99.90
2023-05-24T12:44:38.828Z,99.90
2023-05-24T12:47:07.375Z,99.90
2023-05-24T12:49:34.293Z,99.90
2023-05-24T12:52:03.948Z,99.90
2023-05-24T12:54:30.933Z,99.90
2023-05-24T12:57:00.010Z,99.90
2023-05-24T12:59:28.612Z,99.90
2023-05-24T13:01:56.580Z,99.90
2023-05-24T13:04:26.088Z,99.90
2023-05-24T13:06:52.907Z,99.90
2023-05-24T13:09:22.762Z,99.90
2023-05-24T13:11:49.802Z,99.90
2023-05-24T13:14:19.704Z,99.90
2023-05-24T13:16:47.000Z,99.90
2023-05-24T13:19:13.976Z,99.90
2023-05-24T13:21:41.027Z,99.90
2023-05-24T13:24:15.894Z,99.90
2023-05-24T13:26:43.054Z,99.90
2023-05-24T13:31:41.051Z,99.90
2023-05-24T13:34:10.369Z,99.90
2023-05-24T13:36:38.056Z,99.90
2023-05-24T13:39:15.541Z,99.90
2023-05-24T13:41:44.136Z,99.90
2023-05-24T13:44:12.525Z,99.90
2023-05-24T13:46:40.201Z,99.90
2023-05-24T13:49:09.294Z,99.90
2023-05-24T13:51:36.997Z,99.90
2023-05-24T13:54:04.946Z,99.90
2023-05-24T13:56:33.177Z,99.90
2023-05-24T13:59:01.574Z,99.90
2023-05-24T14:01:28.785Z,99.90
2023-05-24T14:03:58.975Z,99.90
2023-05-24T14:06:25.776Z,99.90
2023-05-24T14:08:52.641Z,99.90
2023-05-24T14:11:19.768Z,99.90
2023-05-24T14:16:17.092Z,99.90
2023-05-24T14:18:43.946Z,99.90
2023-05-24T14:21:10.707Z,99.90
2023-05-24T14:23:37.655Z,99.90
2023-05-24T14:26:06.765Z,99.90
2023-05-24T14:28:33.478Z,99.90
2023-05-24T14:31:00.180Z,99.90
2023-05-24T14:33:27.200Z,99.90
2023-05-24T14:35:57.373Z,99.90
2023-05-24T14:38:24.911Z,99.90
2023-05-24T14:40:56.863Z,99.90
2023-05-24T14:43:26.167Z,99.90
2023-05-24T14:45:52.840Z,99.90
2023-05-24T14:48:19.761Z,99.90
2023-05-24T14:50:46.712Z,99.90
2023-05-24T14:53:16.250Z,99.90
2023-05-24T14:55:43.947Z,99.90
2023-05-24T14:58:15.185Z,99.90
2023-05-24T15:00:42.754Z,99.90
2023-05-24T15:03:14.489Z,99.90
2023-05-24T15:05:42.722Z,99.90
2023-05-24T15:08:11.521Z,99.90
2023-05-24T15:10:39.330Z,99.90
2023-05-24T15:13:06.688Z,99.90
2023-05-24T15:15:33.483Z,99.90
2023-05-24T15:18:00.352Z,99.90
2023-05-24T15:20:27.133Z,99.90
2023-05-24T15:22:53.956Z,99.90
2023-05-24T15:25:21.051Z,99.90
2023-05-24T15:27:47.880Z,99.90
2023-05-24T15:30:14.873Z,99.90
2023-05-24T15:32:41.704Z,99.90
2023-05-24T15:35:08.797Z,99.90
2023-05-24T15:37:35.529Z,99.90
2023-05-24T15:40:06.170Z,99.90
2023-05-24T15:42:32.890Z,99.90
2023-05-24T15:45:14.640Z,99.90
2023-05-24T15:47:41.387Z,99.90
2023-05-24T15:50:08.854Z,99.90
2023-05-24T15:52:36.105Z,99.90
2023-05-24T15:55:03.228Z,99.90
2023-05-24T15:57:30.395Z,99.90
2023-05-24T15:59:57.450Z,99.90
2023-05-24T16:02:24.378Z,99.90
2023-05-24T16:04:51.336Z,99.90
2023-05-24T16:07:19.513Z,99.90
2023-05-24T16:09:46.875Z,99.90
2023-05-24T16:12:13.851Z,99.90
2023-05-24T16:14:40.524Z,99.90
2023-05-24T16:17:14.870Z,99.90
2023-05-24T16:19:41.926Z,99.90
2023-05-24T16:22:12.052Z,99.90
2023-05-24T16:24:38.694Z,99.90
2023-05-24T16:27:06.800Z,99.90
2023-05-24T16:29:33.975Z,99.90
2023-05-24T16:32:00.789Z,99.90
2023-05-24T16:34:27.631Z,99.90
2023-05-24T16:36:54.390Z,99.90
2023-05-24T16:39:21.184Z,99.90
2023-05-24T16:41:47.894Z,99.90
2023-05-24T16:44:17.803Z,99.90
2023-05-24T16:46:45.631Z,99.90
2023-05-24T16:49:12.624Z,99.90
2023-05-24T16:51:39.328Z,99.90
2023-05-24T16:54:08.312Z,99.90
2023-05-24T16:56:36.892Z,99.90
2023-05-24T16:59:06.411Z,99.90
2023-05-24T17:01:33.569Z,99.90
2023-05-24T17:04:00.600Z,99.90
2023-05-24T17:06:27.367Z,99.90
2023-05-24T17:08:54.058Z,99.90
2023-05-24T17:11:23.079Z,99.90
2023-05-24T17:13:53.687Z,99.90
2023-05-24T17:16:20.666Z,99.90
2023-05-24T17:18:47.430Z,99.90
2023-05-24T17:21:14.179Z,99.90
2023-05-24T17:23:40.869Z,99.90
2023-05-24T17:26:14.376Z,99.90
2023-05-24T17:28:44.084Z,99.90
2023-05-24T17:31:15.318Z,99.90
2023-05-24T17:33:42.024Z,99.90
2023-05-24T17:36:09.569Z,99.90
2023-05-24T17:38:39.613Z,99.90
2023-05-24T17:41:09.836Z,99.90
2023-05-24T17:43:39.086Z,99.90
2023-05-24T17:46:06.952Z,99.90
2023-05-24T17:48:38.507Z,99.90
2023-05-24T17:51:09.549Z,99.90
2023-05-24T17:53:43.014Z,99.90
2023-05-24T17:56:09.741Z,99.90
2023-05-24T17:58:37.188Z,99.90
2023-05-24T18:01:08.630Z,99.90
2023-05-24T18:03:39.204Z,99.90
2023-05-24T18:06:07.033Z,99.90
2023-05-24T18:08:36.103Z,99.90
2023-05-24T18:11:08.050Z,99.90
2023-05-24T18:13:36.450Z,99.90
2023-05-24T18:16:07.382Z,99.90
2023-05-24T18:18:34.559Z,99.90
2023-05-24T18:21:03.518Z,99.90
2023-05-24T18:23:37.270Z,99.90
2023-05-24T18:26:11.386Z,99.90
2023-05-24T18:28:38.907Z,99.90
2023-05-24T18:31:15.954Z,99.90
2023-05-24T18:33:43.047Z,99.90
2023-05-24T18:36:09.973Z,99.90
2023-05-24T18:38:37.487Z,99.90
2023-05-24T18:41:11.786Z,99.90
2023-05-24T18:43:38.795Z,99.90
2023-05-24T18:46:05.543Z,99.90
2023-05-24T18:48:38.120Z,99.90
2023-05-24T18:51:18.420Z,99.90
2023-05-24T18:53:45.193Z,99.90
2023-05-24T18:56:12.017Z,99.90
2023-05-24T18:58:38.824Z,99.90
2023-05-24T19:01:05.618Z,99.90
2023-05-24T19:03:32.452Z,99.90
2023-05-24T19:05:59.159Z,99.90
2023-05-24T19:08:26.089Z,99.90
2023-05-24T19:10:52.768Z,99.90
2023-05-24T19:13:19.450Z,99.90
2023-05-24T19:15:46.409Z,99.90
2023-05-24T19:18:13.207Z,99.90
2023-05-24T19:20:42.617Z,99.90
2023-05-24T19:23:09.307Z,99.90
2023-05-24T19:25:42.047Z,99.90
2023-05-24T19:28:10.379Z,99.90
2023-05-24T19:30:37.573Z,99.90
2023-05-24T19:33:04.371Z,99.90
2023-05-24T19:35:31.083Z,99.90
2023-05-24T19:37:57.890Z,99.90
2023-05-24T19:40:24.589Z,99.90
2023-05-24T19:42:51.314Z,99.90
2023-05-24T19:45:18.476Z,99.90
2023-05-24T19:47:45.763Z,99.90
2023-05-24T19:50:12.570Z,99.90
2023-05-24T19:52:42.066Z,99.90
2023-05-24T19:55:13.823Z,99.90
2023-05-24T19:57:40.643Z,99.90
2023-05-24T20:00:07.817Z,99.90
2023-05-24T20:02:36.490Z,99.90
2023-05-24T20:05:03.902Z,99.90
2023-05-24T20:07:31.476Z,99.90
2023-05-24T20:09:58.212Z,99.90
2023-05-24T20:12:24.917Z,99.90
2023-05-24T20:14:52.347Z,99.90
2023-05-24T20:17:19.030Z,99.90
2023-05-24T20:19:46.423Z,99.90
2023-05-24T20:22:14.548Z,99.90
2023-05-24T20:24:41.288Z,99.90
2023-05-24T20:27:08.010Z,99.90
2023-05-24T20:29:34.873Z,99.90
2023-05-24T20:32:01.680Z,99.90
2023-05-24T20:34:28.434Z,99.90
2023-05-24T20:36:57.528Z,99.90
2023-05-24T20:39:24.284Z,99.90
2023-05-24T20:41:51.027Z,99.90
2023-05-24T20:44:20.877Z,99.90
2023-05-24T20:46:50.572Z,99.90
2023-05-24T20:49:20.583Z,99.90
2023-05-24T20:51:47.307Z,99.90
2023-05-24T20:54:14.176Z,99.90
2023-05-24T20:56:41.049Z,99.90
2023-05-24T20:59:07.825Z,99.90
2023-05-24T21:01:34.803Z,99.90
2023-05-24T21:04:01.547Z,99.90
2023-05-24T21:06:28.262Z,99.90
2023-05-24T21:08:56.647Z,99.90
2023-05-24T21:11:23.410Z,99.90
2023-05-24T21:13:50.151Z,99.90
2023-05-24T21:16:20.058Z,99.90
2023-05-24T21:18:46.729Z,99.90
2023-05-24T21:21:16.824Z,99.90
2023-05-24T21:23:45.790Z,99.90
2023-05-24T21:26:12.451Z,99.90
2023-05-24T21:28:39.209Z,99.90
2023-05-24T21:31:06.934Z,99.90
2023-05-24T21:33:33.872Z,99.90
2023-05-24T21:36:02.611Z,99.90
2023-05-24T21:38:29.563Z,99.90
2023-05-24T21:40:56.329Z,99.90
2023-05-24T21:43:23.945Z,99.90
2023-05-24T21:45:50.682Z,99.90
2023-05-24T21:48:17.389Z,99.90
2023-05-24T21:50:44.176Z,99.90
2023-05-24T21:53:10.885Z,99.90
2023-05-24T21:55:37.580Z,1.00
2023-05-24T21:58:04.350Z,1.00
2023-05-24T22:00:31.705Z,1.00
2023-05-24T22:02:58.552Z,1.00
2023-05-24T22:05:27.636Z,1.00
2023-05-24T22:07:57.827Z,1.00
2023-05-24T22:10:24.610Z,1.00
2023-05-24T22:12:51.335Z,1.00
2023-05-24T22:15:18.084Z,1.00
2023-05-24T22:17:46.882Z,1.00
2023-05-24T22:20:13.709Z,1.00
2023-05-24T22:22:48.682Z,1.00
2023-05-24T22:25:32.840Z,1.00
2023-05-24T22:27:59.541Z,1.00
2023-05-24T22:30:26.533Z,1.00
2023-05-24T22:32:53.385Z,1.00
2023-05-24T22:35:22.907Z,1.00
2023-05-24T22:37:49.637Z,1.00
2023-05-24T22:40:17.976Z,1.00
2023-05-24T22:42:44.842Z,1.00
2023-05-24T22:45:11.696Z,1.00
2023-05-24T22:47:39.744Z,1.00
2023-05-24T22:50:07.916Z,1.00
2023-05-24T22:52:36.996Z,1.00
2023-05-24T22:55:03.938Z,1.00
2023-05-24T22:57:30.823Z,1.00
2023-05-24T22:59:57.504Z,1.00
2023-05-24T23:02:24.239Z,1.00
2023-05-24T23:04:57.149Z,1.00
2023-05-24T23:07:25.101Z,1.00
2023-05-24T23:09:52.209Z,1.00
2023-05-24T23:12:20.886Z,1.00
2023-05-24T23:14:47.607Z,1.00
2023-05-24T23:17:14.479Z,1.00
2023-05-24T23:19:44.618Z,36.10
2023-05-24T23:22:16.248Z,48.10
2023-05-24T23:24:47.399Z,99.90
2023-05-24T23:27:14.354Z,99.90
2023-05-24T23:29:41.251Z,99.90
2023-05-24T23:32:11.467Z,99.90
2023-05-24T23:34:38.203Z,99.90
2023-05-24T23:37:05.755Z,99.90
2023-05-24T23:39:32.782Z,99.90
2023-05-24T23:41:59.481Z,1.00
2023-05-24T23:44:26.408Z,11.60
2023-05-24T23:46:53.681Z,99.90
2023-05-24T23:49:20.864Z,99.90
2023-05-24T23:51:47.814Z,1.00
2023-05-24T23:54:19.198Z,99.90
2023-05-24T23:56:46.185Z,99.90
2023-05-24T23:59:17.314Z,99.90
